Tatarsk, Russia
Current Conditions -  °F | °C
As of 12:30 AM on Sunday 21 Dec 2014 (Local Time) from UNOO Reporting Station
Smoke Smoke  
Wind Chill: -10°   Ceiling: 20000
Heat Index:   Visibility: 1.8mi
Dew Point: -4°   Wind: 4mph
Humidity: 85%   Direction: 160°SSE
Pressure: 30.09"   Gusts: NA
Location:  55.22°N, 75.97°E
Report Text: UNOO 201730Z 16002MPS 3000 FU BKN200 M18/M20 Q1019 25820550NOSIG RMK QFE756
Loading
Personal Weather Stations






























Interactive Weather Map New forecast layout! Learn more

10-Day Weather Forecast

Advertisements
Track Severe Weather on mobile